createdAt,value
2022-10-16T00:01:48.184Z,264
2022-10-16T00:03:53.584Z,278
2022-10-16T00:05:58.687Z,276
2022-10-16T00:08:03.910Z,277
2022-10-16T00:10:09.262Z,277
2022-10-16T00:12:14.249Z,276
2022-10-16T00:14:19.538Z,276
2022-10-16T00:16:24.800Z,276
2022-10-16T00:18:30.031Z,274
2022-10-16T00:20:35.236Z,276
2022-10-16T00:22:40.331Z,276
2022-10-16T00:24:46.022Z,276
2022-10-16T00:26:51.125Z,274
2022-10-16T00:28:56.644Z,273
2022-10-16T00:31:02.442Z,274
2022-10-16T00:33:08.869Z,276
2022-10-16T00:35:14.235Z,274
2022-10-16T00:37:19.733Z,276
2022-10-16T00:39:25.270Z,276
2022-10-16T00:41:30.428Z,276
2022-10-16T00:43:35.664Z,276
2022-10-16T00:45:40.952Z,276
2022-10-16T00:47:45.961Z,268
2022-10-16T00:49:51.191Z,274
2022-10-16T00:51:56.323Z,274
2022-10-16T00:54:01.506Z,274
2022-10-16T00:56:06.871Z,274
2022-10-16T00:58:12.277Z,274
2022-10-16T01:00:17.591Z,272
2022-10-16T01:02:23.369Z,270
2022-10-16T01:04:29.450Z,273
2022-10-16T01:06:34.626Z,272
2022-10-16T01:08:40.347Z,272
2022-10-16T01:10:48.546Z,268
2022-10-16T01:12:53.790Z,272
2022-10-16T01:14:59.020Z,272
2022-10-16T01:17:04.043Z,271
2022-10-16T01:19:10.330Z,273
2022-10-16T01:21:15.530Z,273
2022-10-16T01:23:20.882Z,272
2022-10-16T01:25:26.229Z,273
2022-10-16T01:27:32.123Z,272
2022-10-16T01:29:37.320Z,272
2022-10-16T01:31:42.349Z,272
2022-10-16T01:33:47.885Z,272
2022-10-16T01:35:53.165Z,272
2022-10-16T01:37:58.328Z,273
2022-10-16T01:40:03.514Z,274
2022-10-16T01:42:08.706Z,273
2022-10-16T01:44:13.705Z,270
2022-10-16T01:46:18.896Z,273
2022-10-16T01:48:27.002Z,279
2022-10-16T01:50:32.470Z,273
2022-10-16T01:52:37.596Z,273
2022-10-16T01:54:42.953Z,272
2022-10-16T01:56:48.241Z,272
2022-10-16T01:58:53.409Z,273
2022-10-16T02:00:59.090Z,272
2022-10-16T02:03:04.651Z,272
2022-10-16T02:05:10.831Z,272
2022-10-16T02:07:16.194Z,271
2022-10-16T02:09:21.315Z,273
2022-10-16T02:11:26.499Z,273
2022-10-16T02:13:32.017Z,272
2022-10-16T02:15:37.624Z,272
2022-10-16T02:17:45.558Z,272
2022-10-16T02:19:51.010Z,272
2022-10-16T02:21:56.364Z,268
2022-10-16T02:24:01.828Z,273
2022-10-16T02:26:08.085Z,272
2022-10-16T02:28:13.244Z,270
2022-10-16T02:30:18.251Z,270
2022-10-16T02:32:24.183Z,268
2022-10-16T02:34:31.583Z,270
2022-10-16T02:36:36.667Z,271
2022-10-16T02:38:41.826Z,271
2022-10-16T02:40:47.478Z,272
2022-10-16T02:42:52.865Z,272
2022-10-16T02:44:58.578Z,272
2022-10-16T02:47:04.163Z,272
2022-10-16T02:49:09.433Z,272
2022-10-16T02:51:14.765Z,276
2022-10-16T02:53:19.967Z,276
2022-10-16T02:55:25.095Z,270
2022-10-16T02:57:31.130Z,271
2022-10-16T02:59:36.270Z,277
2022-10-16T03:01:41.807Z,277
2022-10-16T03:03:46.821Z,276
2022-10-16T03:05:52.080Z,277
2022-10-16T03:07:57.288Z,277
2022-10-16T03:10:02.534Z,277
2022-10-16T03:12:07.588Z,277
2022-10-16T03:14:12.919Z,272
2022-10-16T03:16:18.134Z,273
2022-10-16T03:18:23.289Z,277
2022-10-16T03:20:28.526Z,279
2022-10-16T03:22:33.653Z,278
2022-10-16T03:24:38.813Z,273
2022-10-16T03:26:44.048Z,278
2022-10-16T03:28:49.589Z,278
2022-10-16T03:30:55.006Z,276
2022-10-16T03:33:00.397Z,277
2022-10-16T03:35:05.494Z,277
2022-10-16T03:37:10.507Z,277
2022-10-16T03:39:15.965Z,277
2022-10-16T03:41:21.154Z,277
2022-10-16T03:43:26.217Z,278
2022-10-16T03:45:31.285Z,278
2022-10-16T03:47:36.374Z,278
2022-10-16T03:49:41.514Z,277
2022-10-16T03:51:46.754Z,278
2022-10-16T03:53:51.926Z,279
2022-10-16T03:55:57.182Z,276
2022-10-16T03:58:02.222Z,277
2022-10-16T04:00:07.757Z,268
2022-10-16T04:02:12.848Z,274
2022-10-16T04:04:18.207Z,273
2022-10-16T04:06:24.596Z,273
2022-10-16T04:08:29.656Z,273
2022-10-16T04:10:34.992Z,273
2022-10-16T04:12:40.602Z,273
2022-10-16T04:14:46.678Z,277
2022-10-16T04:16:51.933Z,273
2022-10-16T04:18:56.942Z,274
2022-10-16T04:21:02.241Z,276
2022-10-16T04:23:07.361Z,276
2022-10-16T04:25:12.470Z,276
2022-10-16T04:27:18.789Z,276
2022-10-16T04:29:24.151Z,276
2022-10-16T04:31:29.262Z,276
2022-10-16T04:33:34.430Z,276
2022-10-16T04:35:40.710Z,276
2022-10-16T04:37:45.942Z,276
2022-10-16T04:39:50.878Z,276
2022-10-16T04:41:56.059Z,276
2022-10-16T04:44:01.324Z,277
2022-10-16T04:46:06.542Z,276
2022-10-16T04:48:11.559Z,276
2022-10-16T04:50:16.612Z,276
2022-10-16T04:52:22.006Z,276
2022-10-16T04:54:27.299Z,276
2022-10-16T04:56:32.661Z,276
2022-10-16T04:58:37.870Z,276
2022-10-16T05:00:43.023Z,276
2022-10-16T05:02:48.528Z,276
2022-10-16T05:04:53.986Z,276
2022-10-16T05:06:59.126Z,276
2022-10-16T05:09:04.428Z,277
2022-10-16T05:11:09.853Z,276
2022-10-16T05:13:14.921Z,276
2022-10-16T05:15:20.000Z,276
2022-10-16T05:17:27.524Z,276
2022-10-16T05:19:34.055Z,276
2022-10-16T05:21:39.221Z,276
2022-10-16T05:23:44.773Z,276
2022-10-16T05:25:50.226Z,276
2022-10-16T05:27:55.691Z,272
2022-10-16T05:30:01.454Z,274
2022-10-16T05:32:07.546Z,276
2022-10-16T05:34:13.398Z,277
2022-10-16T05:36:18.495Z,274
2022-10-16T05:38:23.752Z,274
2022-10-16T05:40:29.469Z,274
2022-10-16T05:42:34.937Z,274
2022-10-16T05:44:41.065Z,274
2022-10-16T05:46:46.737Z,274
2022-10-16T05:48:52.664Z,276
2022-10-16T05:50:58.787Z,276
2022-10-16T05:53:04.578Z,276
2022-10-16T05:55:10.817Z,276
2022-10-16T05:57:16.512Z,276
2022-10-16T05:59:22.761Z,276
2022-10-16T06:01:28.708Z,276
2022-10-16T06:03:34.107Z,274
2022-10-16T06:05:39.437Z,276
2022-10-16T06:07:48.090Z,273
2022-10-16T06:09:53.551Z,273
2022-10-16T06:11:59.211Z,273
2022-10-16T06:14:05.043Z,273
2022-10-16T06:16:11.179Z,273
2022-10-16T06:18:17.508Z,273
2022-10-16T06:20:24.109Z,273
2022-10-16T06:22:29.286Z,273
2022-10-16T06:24:34.647Z,273
2022-10-16T06:26:40.621Z,273
2022-10-16T06:28:46.721Z,273
2022-10-16T06:30:52.781Z,273
2022-10-16T06:32:58.782Z,273
2022-10-16T06:35:05.186Z,273
2022-10-16T06:37:10.925Z,273
2022-10-16T06:39:16.945Z,273
2022-10-16T06:41:23.073Z,273
2022-10-16T06:43:29.476Z,273
2022-10-16T06:45:35.679Z,273
2022-10-16T06:47:42.137Z,273
2022-10-16T06:49:55.882Z,273
2022-10-16T06:52:01.975Z,273
2022-10-16T06:54:08.247Z,273
2022-10-16T06:56:14.952Z,273
2022-10-16T06:58:22.283Z,273
2022-10-16T07:00:28.610Z,273
2022-10-16T07:02:35.402Z,273
2022-10-16T07:04:41.467Z,273
2022-10-16T07:06:48.063Z,273
2022-10-16T07:08:54.341Z,273
2022-10-16T07:11:00.902Z,273
2022-10-16T07:13:08.112Z,273
2022-10-16T07:15:15.096Z,273
2022-10-16T07:17:21.343Z,273
2022-10-16T07:19:34.207Z,273
2022-10-16T07:21:40.782Z,273
2022-10-16T07:23:47.230Z,274
2022-10-16T07:25:53.275Z,273
2022-10-16T07:28:00.560Z,274
2022-10-16T07:30:11.115Z,274
2022-10-16T07:32:17.708Z,273
2022-10-16T07:34:24.365Z,273
2022-10-16T07:36:31.029Z,273
2022-10-16T07:38:37.798Z,273
2022-10-16T07:40:43.834Z,273
2022-10-16T07:42:50.145Z,274
2022-10-16T07:44:56.862Z,273
2022-10-16T07:47:03.067Z,273
2022-10-16T07:49:09.181Z,273
2022-10-16T07:51:16.184Z,273
2022-10-16T07:53:28.680Z,273
2022-10-16T07:55:35.431Z,273
2022-10-16T07:57:41.720Z,273
2022-10-16T07:59:48.283Z,273
2022-10-16T08:01:57.676Z,273
2022-10-16T08:06:10.428Z,273
2022-10-16T08:08:17.002Z,273
2022-10-16T08:10:23.200Z,273
2022-10-16T08:12:29.833Z,273
2022-10-16T08:14:37.377Z,273
2022-10-16T08:16:43.913Z,274
2022-10-16T08:18:50.358Z,274
2022-10-16T08:20:57.413Z,274
2022-10-16T08:23:03.832Z,273
2022-10-16T08:25:10.867Z,273
2022-10-16T08:27:19.464Z,276
2022-10-16T08:29:25.619Z,273
2022-10-16T08:31:32.233Z,276
2022-10-16T08:33:38.578Z,276
2022-10-16T08:35:44.899Z,276
2022-10-16T08:37:51.125Z,274
2022-10-16T08:39:59.790Z,273
2022-10-16T08:42:06.166Z,274
2022-10-16T08:44:12.617Z,274
2022-10-16T08:46:19.115Z,273
2022-10-16T08:48:27.009Z,274
2022-10-16T08:50:33.204Z,273
2022-10-16T08:52:39.671Z,273
2022-10-16T08:54:46.389Z,274
2022-10-16T08:56:53.886Z,267
2022-10-16T08:59:05.252Z,266
2022-10-16T09:01:12.216Z,267
2022-10-16T09:03:19.282Z,267
2022-10-16T09:05:26.192Z,267
2022-10-16T09:07:32.450Z,284
2022-10-16T09:09:38.448Z,286
2022-10-16T09:11:45.396Z,286
2022-10-16T09:13:52.281Z,286
2022-10-16T09:15:59.909Z,284
2022-10-16T09:18:06.293Z,283
2022-10-16T09:20:13.729Z,284
2022-10-16T09:22:21.231Z,283
2022-10-16T09:24:31.035Z,283
2022-10-16T09:26:39.136Z,283
2022-10-16T09:28:45.992Z,283
2022-10-16T09:30:53.219Z,283
2022-10-16T09:33:00.174Z,283
2022-10-16T09:35:07.840Z,283
2022-10-16T09:37:14.580Z,282
2022-10-16T09:39:20.596Z,282
2022-10-16T09:41:26.553Z,264
2022-10-16T09:43:33.518Z,265
2022-10-16T09:45:42.111Z,265
2022-10-16T09:47:51.707Z,264
2022-10-16T09:50:03.293Z,264
2022-10-16T09:52:09.896Z,264
2022-10-16T09:54:17.340Z,265
2022-10-16T09:56:24.431Z,265
2022-10-16T09:58:30.938Z,265
2022-10-16T10:00:38.801Z,265
2022-10-16T10:02:46.083Z,264
2022-10-16T10:04:53.949Z,265
2022-10-16T10:07:01.727Z,264
2022-10-16T10:09:09.328Z,265
2022-10-16T10:11:19.346Z,265
2022-10-16T10:13:26.296Z,265
2022-10-16T10:15:32.677Z,265
2022-10-16T10:17:39.207Z,265
2022-10-16T10:19:47.032Z,265
2022-10-16T10:21:54.070Z,265
2022-10-16T10:24:03.427Z,266
2022-10-16T10:26:11.878Z,265
2022-10-16T10:28:18.634Z,265
2022-10-16T10:30:25.515Z,265
2022-10-16T10:32:34.094Z,265
2022-10-16T10:34:41.484Z,265
2022-10-16T10:36:48.330Z,265
2022-10-16T10:38:56.879Z,265
2022-10-16T10:41:04.710Z,265
2022-10-16T10:43:11.917Z,265
2022-10-16T10:45:18.434Z,264
2022-10-16T10:47:27.539Z,265
2022-10-16T10:49:34.458Z,264
2022-10-16T10:51:41.741Z,265
2022-10-16T10:53:48.229Z,265
2022-10-16T10:55:55.453Z,265
2022-10-16T10:58:02.085Z,265
2022-10-16T11:00:08.925Z,265
2022-10-16T11:02:15.970Z,265
2022-10-16T11:04:23.629Z,265
2022-10-16T11:06:30.631Z,265
2022-10-16T11:08:37.747Z,265
2022-10-16T11:10:44.188Z,265
2022-10-16T11:12:51.067Z,265
2022-10-16T11:14:58.635Z,265
2022-10-16T11:17:06.344Z,265
2022-10-16T11:19:13.779Z,266
2022-10-16T11:21:21.979Z,265
2022-10-16T11:23:33.968Z,265
2022-10-16T11:25:40.374Z,265
2022-10-16T11:27:47.421Z,265
2022-10-16T11:29:54.241Z,265
2022-10-16T11:32:01.158Z,265
2022-10-16T11:34:09.621Z,265
2022-10-16T11:36:15.982Z,264
2022-10-16T11:38:22.961Z,265
2022-10-16T11:40:29.405Z,265
2022-10-16T11:42:35.796Z,265
2022-10-16T11:44:42.027Z,290
2022-10-16T11:48:00.686Z,289
2022-10-16T11:50:08.218Z,273
2022-10-16T11:52:15.626Z,277
2022-10-16T11:54:21.856Z,278
2022-10-16T11:56:28.267Z,276
2022-10-16T11:58:34.802Z,277
2022-10-16T12:00:40.957Z,277
2022-10-16T12:02:47.288Z,277
2022-10-16T12:04:53.610Z,277
2022-10-16T12:06:59.900Z,277
2022-10-16T12:09:06.200Z,277
2022-10-16T12:11:12.786Z,277
2022-10-16T12:13:18.980Z,276
2022-10-16T12:16:00.855Z,278
2022-10-16T12:18:08.087Z,277
2022-10-16T12:20:14.430Z,276
2022-10-16T12:22:21.147Z,278
2022-10-16T12:24:27.981Z,278
2022-10-16T12:26:34.237Z,278
2022-10-16T12:28:41.092Z,278
2022-10-16T12:30:47.357Z,277
2022-10-16T12:32:55.437Z,276
2022-10-16T12:35:02.662Z,277
2022-10-16T12:37:08.870Z,277
2022-10-16T12:39:15.933Z,276
2022-10-16T12:41:22.644Z,273
2022-10-16T12:43:32.683Z,274
2022-10-16T12:45:39.770Z,276
2022-10-16T12:47:46.539Z,274
2022-10-16T12:49:54.063Z,274
2022-10-16T12:52:00.926Z,274
2022-10-16T12:54:07.331Z,274
2022-10-16T12:56:13.934Z,276
2022-10-16T12:58:20.772Z,276
2022-10-16T13:00:27.687Z,276
2022-10-16T13:02:34.117Z,276
2022-10-16T13:04:40.209Z,276
2022-10-16T13:06:46.813Z,276
2022-10-16T13:08:53.103Z,274
2022-10-16T13:10:59.327Z,276
2022-10-16T13:13:05.439Z,273
2022-10-16T13:15:12.100Z,272
2022-10-16T13:17:18.865Z,270
2022-10-16T13:19:26.249Z,274
2022-10-16T13:21:32.438Z,273
2022-10-16T13:23:38.995Z,274
2022-10-16T13:25:45.526Z,274
2022-10-16T13:27:52.076Z,274
2022-10-16T13:29:58.054Z,276
2022-10-16T13:32:09.166Z,273
2022-10-16T13:34:15.788Z,273
2022-10-16T13:36:22.132Z,273
2022-10-16T13:38:29.632Z,273
2022-10-16T13:40:36.032Z,273
2022-10-16T13:42:42.445Z,273
2022-10-16T13:44:48.769Z,273
2022-10-16T13:46:55.054Z,273
2022-10-16T13:49:01.262Z,273
2022-10-16T13:51:07.654Z,273
2022-10-16T13:53:13.717Z,273
2022-10-16T13:55:20.297Z,273
2022-10-16T13:57:30.264Z,273
2022-10-16T13:59:36.865Z,273
2022-10-16T14:01:42.993Z,273
2022-10-16T14:03:49.452Z,273
2022-10-16T14:05:55.556Z,273
2022-10-16T14:08:01.868Z,273
2022-10-16T14:10:08.319Z,273
2022-10-16T14:12:14.698Z,273
2022-10-16T14:14:21.123Z,273
2022-10-16T14:16:27.340Z,273
2022-10-16T14:18:37.869Z,273
2022-10-16T14:20:44.125Z,273
2022-10-16T14:22:50.696Z,273
2022-10-16T14:24:57.175Z,274
2022-10-16T14:27:03.686Z,274
2022-10-16T14:29:10.354Z,274
2022-10-16T14:31:16.606Z,276
2022-10-16T14:33:23.413Z,268
2022-10-16T14:35:31.168Z,278
2022-10-16T14:37:38.457Z,276
2022-10-16T14:39:46.760Z,277
2022-10-16T14:41:54.070Z,274
2022-10-16T14:44:01.105Z,270
2022-10-16T14:46:08.437Z,272
2022-10-16T14:48:21.456Z,270
2022-10-16T14:50:29.480Z,273
2022-10-16T14:52:36.400Z,276
2022-10-16T14:54:42.885Z,273
2022-10-16T14:56:50.046Z,274
2022-10-16T14:58:57.522Z,273
2022-10-16T15:01:04.066Z,270
2022-10-16T15:03:11.375Z,274
2022-10-16T15:05:17.960Z,265
2022-10-16T15:07:25.645Z,271
2022-10-16T15:09:33.466Z,276
2022-10-16T15:11:40.213Z,274
2022-10-16T15:13:46.927Z,273
2022-10-16T15:15:53.967Z,274
2022-10-16T15:18:00.603Z,273
2022-10-16T15:20:08.093Z,272
2022-10-16T15:22:14.968Z,272
2022-10-16T15:24:24.493Z,269
2022-10-16T15:26:31.373Z,270
2022-10-16T15:28:38.521Z,272
2022-10-16T15:30:45.539Z,269
2022-10-16T15:32:53.907Z,270
2022-10-16T15:35:01.069Z,274
2022-10-16T15:37:07.721Z,276
2022-10-16T15:39:14.675Z,278
2022-10-16T15:41:20.727Z,278
2022-10-16T15:43:27.808Z,273
2022-10-16T15:45:34.762Z,277
2022-10-16T15:47:47.510Z,270
2022-10-16T15:49:53.878Z,270
2022-10-16T15:52:00.488Z,272
2022-10-16T15:54:06.849Z,268
2022-10-16T15:56:13.253Z,286
2022-10-16T15:58:19.657Z,284
2022-10-16T16:00:25.836Z,284
2022-10-16T16:02:32.711Z,284
2022-10-16T16:04:48.179Z,283
2022-10-16T16:06:54.839Z,284
2022-10-16T16:11:10.444Z,279
2022-10-16T16:13:16.989Z,281
2022-10-16T16:15:23.870Z,281
2022-10-16T16:17:31.155Z,281
2022-10-16T16:19:36.943Z,281
2022-10-16T16:21:43.180Z,281
2022-10-16T16:23:51.008Z,281
2022-10-16T16:25:58.275Z,279
2022-10-16T16:28:04.747Z,281
2022-10-16T16:30:13.118Z,281
2022-10-16T16:32:26.298Z,280
2022-10-16T16:34:34.832Z,280
2022-10-16T16:36:41.889Z,279
2022-10-16T16:38:48.910Z,277
2022-10-16T16:40:59.958Z,278
2022-10-16T16:43:06.873Z,272
2022-10-16T16:45:15.397Z,277
2022-10-16T16:47:26.809Z,278
2022-10-16T16:49:34.779Z,276
2022-10-16T16:51:44.060Z,278
2022-10-16T16:53:51.204Z,277
2022-10-16T16:56:07.219Z,281
2022-10-16T16:58:17.025Z,279
2022-10-16T17:00:29.581Z,284
2022-10-16T17:02:39.926Z,283
2022-10-16T17:04:48.820Z,278
2022-10-16T17:07:01.529Z,279
2022-10-16T17:09:09.749Z,278
2022-10-16T17:11:18.541Z,279
2022-10-16T17:13:30.612Z,279
2022-10-16T17:15:39.413Z,279
2022-10-16T17:17:56.282Z,279
2022-10-16T17:20:08.985Z,280
2022-10-16T17:22:20.096Z,279
2022-10-16T17:24:31.891Z,279
2022-10-16T17:26:41.466Z,279
2022-10-16T17:28:51.245Z,277
2022-10-16T17:31:07.725Z,277
2022-10-16T17:33:21.113Z,274
2022-10-16T17:35:34.375Z,273
2022-10-16T17:37:44.529Z,279
2022-10-16T17:42:31.873Z,279
2022-10-16T17:44:44.561Z,273
2022-10-16T17:46:58.260Z,274
2022-10-16T17:49:10.808Z,274
2022-10-16T17:51:23.244Z,280
2022-10-16T17:53:34.227Z,279
2022-10-16T17:55:47.752Z,277
2022-10-16T17:58:07.948Z,278
2022-10-16T18:00:24.455Z,282
2022-10-16T18:02:35.187Z,280
2022-10-16T18:04:49.004Z,279
2022-10-16T18:07:01.470Z,280
2022-10-16T18:09:15.413Z,281
2022-10-16T18:11:27.646Z,282
2022-10-16T18:13:41.841Z,279
2022-10-16T18:15:52.709Z,276
2022-10-16T18:18:05.962Z,276
2022-10-16T18:20:14.048Z,279
2022-10-16T18:22:22.771Z,276
2022-10-16T18:24:33.234Z,278
2022-10-16T18:26:44.498Z,278
2022-10-16T18:28:55.424Z,277
2022-10-16T18:31:04.781Z,288
2022-10-16T18:33:18.040Z,283
2022-10-16T18:35:38.575Z,283
2022-10-16T18:37:49.871Z,284
2022-10-16T18:39:59.929Z,284
2022-10-16T18:42:22.107Z,284
2022-10-16T18:44:34.209Z,283
2022-10-16T18:46:44.951Z,284
2022-10-16T18:48:57.224Z,283
2022-10-16T18:51:10.103Z,283
2022-10-16T18:53:24.985Z,283
2022-10-16T18:55:40.823Z,273
2022-10-16T18:57:53.069Z,286
2022-10-16T19:00:07.559Z,276
2022-10-16T19:02:16.498Z,279
2022-10-16T19:04:40.405Z,279
2022-10-16T19:06:50.780Z,279
2022-10-16T19:09:04.933Z,272
2022-10-16T19:11:18.012Z,273
2022-10-16T19:13:33.363Z,276
2022-10-16T19:16:23.223Z,282
2022-10-16T19:18:37.426Z,279
2022-10-16T19:20:54.928Z,277
2022-10-16T19:23:03.076Z,274
2022-10-16T19:25:11.817Z,277
2022-10-16T19:27:20.212Z,274
2022-10-16T19:29:29.907Z,274
2022-10-16T19:31:37.944Z,277
2022-10-16T19:33:46.009Z,274
2022-10-16T19:35:57.943Z,280
2022-10-16T19:38:06.039Z,283
2022-10-16T19:40:14.121Z,283
2022-10-16T19:42:32.167Z,276
2022-10-16T19:44:39.942Z,276
2022-10-16T19:46:48.347Z,276
2022-10-16T19:48:56.964Z,276
2022-10-16T19:51:04.028Z,273
2022-10-16T19:53:12.171Z,273
2022-10-16T19:55:20.140Z,274
2022-10-16T19:57:27.534Z,273
2022-10-16T19:59:36.010Z,273
2022-10-16T20:01:48.840Z,274
2022-10-16T20:03:55.866Z,273
2022-10-16T20:06:03.616Z,273
2022-10-16T20:08:11.518Z,273
2022-10-16T20:10:18.105Z,273
2022-10-16T20:12:25.399Z,273
2022-10-16T20:14:31.956Z,283
2022-10-16T20:16:39.512Z,283
2022-10-16T20:18:46.102Z,283
2022-10-16T20:20:58.362Z,283
2022-10-16T20:23:04.580Z,277
2022-10-16T20:25:19.163Z,276
2022-10-16T20:27:27.030Z,278
2022-10-16T20:29:37.698Z,279
2022-10-16T20:31:44.003Z,278
2022-10-16T20:33:50.375Z,277
2022-10-16T20:35:57.055Z,277
2022-10-16T20:38:04.861Z,277
2022-10-16T20:40:11.542Z,277
2022-10-16T20:42:19.949Z,274
2022-10-16T20:44:26.584Z,277
2022-10-16T20:46:33.445Z,277
2022-10-16T20:48:40.496Z,277
2022-10-16T20:50:46.512Z,277
2022-10-16T20:52:52.260Z,277
2022-10-16T20:54:57.830Z,277
2022-10-16T20:57:04.084Z,277
2022-10-16T20:59:10.289Z,277
2022-10-16T21:01:17.039Z,277
2022-10-16T21:03:23.069Z,277
2022-10-16T21:05:29.244Z,277
2022-10-16T21:07:35.344Z,277
2022-10-16T21:09:41.551Z,277
2022-10-16T21:11:47.873Z,277
2022-10-16T21:13:53.118Z,277
2022-10-16T21:15:59.208Z,277
2022-10-16T21:18:06.202Z,277
2022-10-16T21:20:12.803Z,277
2022-10-16T21:22:18.419Z,277
2022-10-16T21:24:23.962Z,276
2022-10-16T21:26:30.583Z,277
2022-10-16T21:28:37.849Z,278
2022-10-16T21:30:44.157Z,277
2022-10-16T21:32:49.875Z,277
2022-10-16T21:34:54.978Z,277
2022-10-16T21:37:01.226Z,282
2022-10-16T21:39:06.578Z,281
2022-10-16T21:41:12.096Z,281
2022-10-16T21:43:18.114Z,280
2022-10-16T21:45:23.903Z,282
2022-10-16T21:47:29.698Z,282
2022-10-16T21:49:35.367Z,282
2022-10-16T21:51:40.962Z,282
2022-10-16T21:53:46.774Z,281
2022-10-16T21:55:52.980Z,280
2022-10-16T21:57:58.174Z,280
2022-10-16T22:00:10.451Z,281
2022-10-16T22:02:16.205Z,280
2022-10-16T22:04:21.904Z,279
2022-10-16T22:06:42.686Z,280
2022-10-16T22:08:57.585Z,279
2022-10-16T22:11:03.077Z,280
2022-10-16T22:13:09.576Z,280
2022-10-16T22:15:14.919Z,280
2022-10-16T22:17:21.503Z,280
2022-10-16T22:19:27.083Z,279
2022-10-16T22:21:32.640Z,279
2022-10-16T22:23:38.222Z,278
2022-10-16T22:25:44.701Z,278
2022-10-16T22:27:49.969Z,278
2022-10-16T22:29:55.030Z,277
2022-10-16T22:32:00.273Z,278
2022-10-16T22:34:05.422Z,277
2022-10-16T22:36:10.621Z,277
2022-10-16T22:38:16.172Z,277
2022-10-16T22:40:21.328Z,277
2022-10-16T22:42:27.501Z,277
2022-10-16T22:44:33.187Z,277
2022-10-16T22:46:38.420Z,277
2022-10-16T22:48:44.030Z,277
2022-10-16T22:50:49.065Z,277
2022-10-16T22:52:54.374Z,278
2022-10-16T22:54:59.593Z,277
2022-10-16T22:57:05.329Z,277
2022-10-16T22:59:10.541Z,277
2022-10-16T23:01:15.817Z,277
2022-10-16T23:03:21.275Z,277
2022-10-16T23:05:26.684Z,277
2022-10-16T23:07:33.120Z,277
2022-10-16T23:09:38.707Z,277
2022-10-16T23:11:43.891Z,277
2022-10-16T23:13:49.071Z,277
2022-10-16T23:15:54.817Z,277
2022-10-16T23:17:59.801Z,277
2022-10-16T23:20:05.200Z,277
2022-10-16T23:22:10.697Z,277
2022-10-16T23:24:15.989Z,277
2022-10-16T23:26:21.666Z,276
2022-10-16T23:28:27.034Z,277
2022-10-16T23:30:32.318Z,277
2022-10-16T23:32:38.184Z,277
2022-10-16T23:34:43.333Z,266
2022-10-16T23:36:48.459Z,276
2022-10-16T23:38:53.876Z,270
2022-10-16T23:40:59.188Z,267
2022-10-16T23:43:04.497Z,267
2022-10-16T23:45:09.835Z,266
2022-10-16T23:47:15.431Z,274
2022-10-16T23:49:21.608Z,273
2022-10-16T23:51:26.887Z,274
2022-10-16T23:53:32.147Z,273
2022-10-16T23:55:37.369Z,274
2022-10-16T23:57:42.776Z,273
2022-10-16T23:59:47.890Z,274
